Aviation Digital Data Service (ADDS)

Output produced by METARs form (1709 UTC 21 September 2019)
found at http://aviationweather.gov/metar/data/
 
KGLS 211652Z 12012KT 10SM SCT026 31/24 A3009 RMK AO2 SLP190 T03110239
KGLS 211120Z 2112/2212 12013KT P6SM VCSH SCT025 SCT250 
     FM211700 13013KT P6SM SCT025 SCT250 
     FM220400 13016KT P6SM SCT020